Time;durP1;ratioP1;P1;durP2;ratioP2;P2;SDS_P1;SDS_P2;PMS_P1;PMS_P2;Temp;Humidity;BMP_temperature;BMP_pressure;BME280_temperature;BME280_humidity;BME280_pressure;Samples;Min_cycle;Max_cycle;Signal;HPM_P1;HPM_P2
2022/05/08 00:02:03;;;;;;;29.77;26.23;;;15.20;99.90;;;;;;4975875;28;20177;-74
2022/05/08 00:04:28;;;;;;;29.70;26.50;;;15.10;99.90;;;;;;4982802;28;20196;-74
2022/05/08 00:06:54;;;;;;;28.60;25.60;;;15.20;99.90;;;;;;4984049;28;20193;-72
2022/05/08 00:09:19;;;;;;;30.17;26.30;;;15.30;99.90;;;;;;4982335;28;20240;-72
2022/05/08 00:11:45;;;;;;;30.23;26.87;;;15.30;99.90;;;;;;4983269;28;20592;-72
2022/05/08 00:14:10;;;;;;;28.40;25.50;;;15.30;99.90;;;;;;4984967;28;20205;-72
2022/05/08 00:16:36;;;;;;;29.97;26.47;;;15.30;99.90;;;;;;4982661;28;20200;-73
2022/05/08 00:19:01;;;;;;;28.43;25.47;;;15.20;99.90;;;;;;4974499;28;20222;-74
2022/05/08 00:21:27;;;;;;;30.10;26.00;;;15.20;99.90;;;;;;4973554;28;20830;-74
2022/05/08 00:23:53;;;;;;;30.80;27.50;;;15.30;99.90;;;;;;4973564;28;20174;-74
2022/05/08 00:26:19;;;;;;;34.47;27.07;;;15.20;99.90;;;;;;4971878;28;20267;-73
2022/05/08 00:28:44;;;;;;;32.50;28.93;;;15.20;99.90;;;;;;4973343;28;20282;-73
2022/05/08 00:31:11;;;;;;;30.63;27.37;;;15.20;99.90;;;;;;4972888;28;20411;-73
2022/05/08 00:33:38;;;;;;;31.00;27.37;;;15.00;99.90;;;;;;4973073;28;20212;-73
2022/05/08 00:36:04;;;;;;;30.20;27.10;;;15.00;99.90;;;;;;4972829;28;20995;-72
2022/05/08 00:38:30;;;;;;;32.37;28.13;;;14.90;99.90;;;;;;4972997;28;20432;-72
2022/05/08 00:40:55;;;;;;;32.30;28.80;;;14.90;99.90;;;;;;4972474;28;20517;-72
2022/05/08 00:43:34;;;;;;;29.97;26.37;;;14.90;99.90;;;;;;4972626;28;20177;-73
2022/05/08 00:46:05;;;;;;;29.70;26.50;;;14.90;99.90;;;;;;4972616;28;20271;-72
2022/05/08 00:48:32;;;;;;;31.77;26.30;;;14.80;99.90;;;;;;4972739;28;20443;-73
2022/05/08 00:50:59;;;;;;;27.07;24.27;;;14.80;99.90;;;;;;4972460;28;20493;-73
2022/05/08 00:53:26;;;;;;;28.53;25.40;;;14.70;99.90;;;;;;4972769;28;20443;-72
2022/05/08 00:55:54;;;;;;;27.57;24.60;;;14.70;99.90;;;;;;4971646;28;20839;-72
2022/05/08 00:58:20;;;;;;;30.93;23.70;;;14.70;99.90;;;;;;4972426;28;20936;-74
2022/05/08 01:00:46;;;;;;;26.97;24.17;;;14.60;99.90;;;;;;4972427;28;20488;-72
2022/05/08 01:03:12;;;;;;;27.97;23.83;;;14.70;99.90;;;;;;4972099;28;20181;-72
2022/05/08 01:05:41;;;;;;;25.47;22.47;;;14.70;99.90;;;;;;4972648;28;20181;-72
2022/05/08 01:08:08;;;;;;;24.10;21.70;;;14.70;99.90;;;;;;4972597;28;20441;-73
2022/05/08 01:10:38;;;;;;;26.60;21.73;;;14.70;99.90;;;;;;4972521;28;20416;-73
2022/05/08 01:13:04;;;;;;;30.17;22.33;;;14.80;99.90;;;;;;4972333;28;20860;-73
2022/05/08 01:15:39;;;;;;;22.87;20.47;;;14.80;99.90;;;;;;4972885;28;20494;-73
2022/05/08 01:18:04;;;;;;;22.90;19.57;;;14.80;99.90;;;;;;4972478;28;20440;-73
2022/05/08 01:20:30;;;;;;;20.57;18.40;;;14.80;99.90;;;;;;4971781;28;20481;-72
2022/05/08 01:22:55;;;;;;;20.07;17.30;;;14.80;99.90;;;;;;4972327;28;20173;-73
2022/05/08 01:25:21;;;;;;;18.47;16.60;;;14.90;99.90;;;;;;4972258;28;20177;-73
2022/05/08 01:27:46;;;;;;;19.33;17.17;;;14.90;99.90;;;;;;4971894;28;20208;-72
2022/05/08 01:30:12;;;;;;;16.77;15.07;;;14.90;99.90;;;;;;4971763;28;20188;-72
2022/05/08 01:32:38;;;;;;;18.00;16.10;;;14.80;99.90;;;;;;4972070;28;20191;-73
2022/05/08 01:35:03;;;;;;;15.80;14.13;;;14.80;99.90;;;;;;4972018;28;20645;-73
2022/05/08 01:37:29;;;;;;;14.57;13.17;;;14.70;99.90;;;;;;4971907;28;20268;-73
2022/05/08 01:39:56;;;;;;;14.40;12.87;;;14.50;99.90;;;;;;4971414;28;20643;-72
2022/05/08 01:42:22;;;;;;;18.27;13.83;;;14.40;99.90;;;;;;4970993;28;20208;-72
2022/05/08 01:44:50;;;;;;;15.63;13.83;;;14.50;99.90;;;;;;4972149;28;20450;-73
2022/05/08 01:49:59;;;;;;;14.93;12.83;;;14.30;99.90;;;;;;4971415;28;20411;-72
2022/05/08 01:52:25;;;;;;;16.47;12.67;;;14.30;99.90;;;;;;4970402;28;20416;-71
2022/05/08 01:54:51;;;;;;;13.33;11.87;;;14.40;99.90;;;;;;4971852;28;20564;-72
2022/05/08 01:57:17;;;;;;;14.00;12.00;;;14.40;99.90;;;;;;4971641;28;20444;-71
2022/05/08 01:59:42;;;;;;;13.80;12.20;;;14.40;99.90;;;;;;4971206;28;20200;-72
2022/05/08 02:02:08;;;;;;;15.40;11.73;;;14.30;99.90;;;;;;4971485;28;20169;-72
2022/05/08 02:04:33;;;;;;;13.20;10.97;;;14.20;99.90;;;;;;4970099;28;20180;-72
2022/05/08 02:06:59;;;;;;;10.63;9.53;;;14.00;99.90;;;;;;4971241;28;20276;-72
2022/05/08 02:09:25;;;;;;;13.10;10.47;;;13.80;99.90;;;;;;4971085;28;20181;-73
2022/05/08 02:11:51;;;;;;;14.73;10.10;;;13.70;99.90;;;;;;4971295;28;20169;-72
2022/05/08 02:14:16;;;;;;;11.20;9.87;;;13.70;99.90;;;;;;4970192;28;20775;-72
2022/05/08 02:16:42;;;;;;;13.10;9.73;;;13.60;99.90;;;;;;4971341;28;20193;-73
2022/05/08 02:19:07;;;;;;;10.33;9.30;;;13.70;99.90;;;;;;4971153;28;20176;-73
2022/05/08 02:21:33;;;;;;;11.30;10.10;;;13.80;99.90;;;;;;4969959;28;20434;-73
2022/05/08 02:23:58;;;;;;;9.73;8.80;;;13.80;99.90;;;;;;4971066;28;20638;-72
2022/05/08 02:26:24;;;;;;;11.40;10.20;;;13.80;99.90;;;;;;4970682;28;20142;-72
2022/05/08 02:28:49;;;;;;;12.17;9.10;;;13.80;99.90;;;;;;4971092;28;20177;-72
2022/05/08 02:31:15;;;;;;;10.30;8.83;;;13.80;99.90;;;;;;4970834;28;20653;-72
2022/05/08 02:33:40;;;;;;;10.53;8.90;;;13.80;99.90;;;;;;4971224;28;20267;-72
2022/05/08 02:36:06;;;;;;;9.57;8.57;;;13.80;99.90;;;;;;4970978;28;20181;-72
2022/05/08 02:38:33;;;;;;;10.73;9.23;;;13.90;99.90;;;;;;4970945;28;20173;-72
2022/05/08 02:40:59;;;;;;;9.93;8.90;;;13.90;99.90;;;;;;4970366;28;20991;-72
2022/05/08 02:43:25;;;;;;;11.00;9.80;;;13.80;99.90;;;;;;4970716;28;20417;-72
2022/05/08 02:45:50;;;;;;;14.17;10.60;;;13.80;99.90;;;;;;4970708;28;20173;-72
2022/05/08 02:48:16;;;;;;;11.47;10.27;;;13.60;99.90;;;;;;4970639;28;20193;-72
2022/05/08 02:50:41;;;;;;;14.70;11.23;;;13.50;99.90;;;;;;4970524;28;20542;-72
2022/05/08 02:53:07;;;;;;;12.10;10.80;;;13.60;99.90;;;;;;4970786;28;20201;-73
2022/05/08 02:58:35;;;;;;;13.30;11.10;;;13.70;99.90;;;;;;4970433;28;20242;-72
2022/05/08 03:01:04;;;;;;;13.83;11.13;;;13.60;99.90;;;;;;4970319;28;20455;-73
2022/05/08 03:03:30;;;;;;;12.57;11.33;;;13.70;99.90;;;;;;4970412;28;20842;-72
2022/05/08 03:05:55;;;;;;;14.37;12.00;;;13.70;99.90;;;;;;4970464;28;20453;-72
2022/05/08 03:08:21;;;;;;;12.90;10.97;;;13.80;99.90;;;;;;4970337;28;20521;-73
2022/05/08 03:13:35;;;;;;;15.67;12.00;;;13.80;99.90;;;;;;4970675;28;20196;-72
2022/05/08 03:16:01;;;;;;;15.10;13.27;;;13.70;99.90;;;;;;4968594;28;20794;-72
2022/05/08 03:18:26;;;;;;;14.47;12.97;;;13.80;99.90;;;;;;4969389;28;20269;-72
2022/05/08 03:20:52;;;;;;;14.73;13.00;;;13.80;99.90;;;;;;4970257;28;20502;-72
2022/05/08 03:23:17;;;;;;;16.13;11.80;;;13.70;99.90;;;;;;4971430;28;20169;-73
2022/05/08 03:25:43;;;;;;;15.83;11.80;;;13.80;99.90;;;;;;4969530;28;20177;-72
2022/05/08 03:28:09;;;;;;;17.43;12.20;;;13.80;99.90;;;;;;4970325;28;20201;-72
2022/05/08 03:30:34;;;;;;;11.83;10.53;;;13.70;99.90;;;;;;4969805;28;20423;-72
2022/05/08 03:33:00;;;;;;;14.30;10.13;;;13.70;99.90;;;;;;4969998;28;20600;-72
2022/05/08 03:35:25;;;;;;;12.00;10.70;;;13.70;99.90;;;;;;4970198;28;20246;-72
2022/05/08 03:37:51;;;;;;;11.23;9.87;;;13.70;99.90;;;;;;4970241;28;20661;-72
2022/05/08 03:40:16;;;;;;;12.10;10.10;;;13.60;99.90;;;;;;4969681;28;20698;-72
2022/05/08 03:42:42;;;;;;;11.90;9.73;;;13.60;99.90;;;;;;4970240;28;20165;-72
2022/05/08 03:45:09;;;;;;;11.53;10.20;;;13.60;99.90;;;;;;4970051;28;20199;-72
2022/05/08 03:47:34;;;;;;;12.43;10.60;;;13.50;99.90;;;;;;4969820;28;20235;-72
2022/05/08 03:50:00;;;;;;;12.80;10.20;;;13.20;99.90;;;;;;4969559;28;20500;-72
2022/05/08 03:52:25;;;;;;;12.37;10.73;;;13.20;99.90;;;;;;4970301;28;20724;-72
2022/05/08 03:54:50;;;;;;;13.67;10.73;;;13.20;99.90;;;;;;4969796;28;20218;-72
2022/05/08 03:57:16;;;;;;;17.33;12.10;;;13.30;99.90;;;;;;4968669;28;20406;-72
2022/05/08 03:59:41;;;;;;;14.70;11.53;;;13.00;99.90;;;;;;4969856;28;20173;-72
2022/05/08 04:02:07;;;;;;;16.83;11.70;;;12.90;99.90;;;;;;4969936;28;20169;-72
2022/05/08 04:04:32;;;;;;;15.50;11.67;;;12.80;99.90;;;;;;4970151;28;20172;-72
2022/05/08 04:06:58;;;;;;;15.33;11.43;;;12.80;99.90;;;;;;4969583;28;20195;-71
2022/05/08 04:09:23;;;;;;;11.07;9.90;;;12.70;99.90;;;;;;4969421;28;20209;-72
2022/05/08 04:11:49;;;;;;;11.93;9.80;;;12.70;99.90;;;;;;4969440;28;20172;-72
2022/05/08 04:14:14;;;;;;;17.17;11.30;;;12.80;99.90;;;;;;4969666;28;20181;-72
2022/05/08 04:16:40;;;;;;;14.40;10.33;;;12.90;99.90;;;;;;4969507;28;20185;-72
2022/05/08 04:19:07;;;;;;;17.17;10.80;;;12.60;99.90;;;;;;4969369;28;20209;-72
2022/05/08 04:21:33;;;;;;;15.77;10.60;;;12.50;99.90;;;;;;4969478;28;20197;-72
2022/05/08 04:24:16;;;;;;;17.03;10.40;;;12.60;99.90;;;;;;4969465;28;20423;-72
2022/05/08 04:26:42;;;;;;;11.57;9.17;;;12.40;99.90;;;;;;4993285;23;20228;-66
2022/05/08 04:29:08;;;;;;;14.43;8.83;;;12.30;99.90;;;;;;4984477;28;20813;-69
2022/05/08 04:31:34;;;;;;;14.80;8.10;;;12.20;99.90;;;;;;4987321;28;20415;-69
2022/05/08 04:34:00;;;;;;;14.00;8.80;;;12.10;99.90;;;;;;4989528;28;20222;-69
2022/05/08 04:36:26;;;;;;;14.40;8.97;;;12.20;99.90;;;;;;4989308;28;20176;-69
2022/05/08 04:38:52;;;;;;;13.70;9.57;;;12.30;99.90;;;;;;4991359;28;20990;-68
2022/05/08 04:41:18;;;;;;;22.60;9.13;;;12.40;99.90;;;;;;4992231;28;20204;-68
2022/05/08 04:43:43;;;;;;;13.30;7.53;;;12.50;99.90;;;;;;4992457;28;20180;-68
2022/05/08 04:46:10;;;;;;;12.10;7.53;;;12.60;99.90;;;;;;4992389;28;20419;-67
2022/05/08 04:48:37;;;;;;;17.83;9.23;;;12.70;99.90;;;;;;4991099;28;20192;-68
2022/05/08 04:51:03;;;;;;;13.15;9.02;;;12.70;99.90;;;;;;4991865;28;20425;-66
2022/05/08 04:53:30;;;;;;;16.67;7.60;;;12.80;99.90;;;;;;4992521;28;20243;-68
2022/05/08 04:55:56;;;;;;;17.17;8.47;;;12.50;99.90;;;;;;4992393;28;20175;-68
2022/05/08 04:58:21;;;;;;;15.30;8.27;;;12.50;99.90;;;;;;4992672;28;20423;-68
2022/05/08 05:00:47;;;;;;;14.80;7.80;;;12.50;99.90;;;;;;4991748;28;20200;-68
2022/05/08 05:03:13;;;;;;;14.93;8.50;;;12.50;99.90;;;;;;4991033;28;20176;-68
2022/05/08 05:05:38;;;;;;;16.93;8.73;;;12.40;99.90;;;;;;4992214;28;20172;-68
2022/05/08 05:08:06;;;;;;;14.87;7.90;;;12.20;99.90;;;;;;4992395;28;20184;-68
2022/05/08 05:10:32;;;;;;;10.57;8.37;;;12.30;99.90;;;;;;4991918;28;20203;-67
2022/05/08 05:12:57;;;;;;;15.53;8.50;;;12.40;99.90;;;;;;4992294;28;20915;-68
2022/05/08 05:15:24;;;;;;;16.77;9.73;;;12.50;99.90;;;;;;4992021;28;20168;-68
2022/05/08 05:17:51;;;;;;;11.90;7.50;;;12.60;99.90;;;;;;4991949;28;20192;-68
2022/05/08 05:20:17;;;;;;;20.90;9.80;;;12.60;99.90;;;;;;4991759;28;20458;-68
2022/05/08 05:22:42;;;;;;;13.47;8.43;;;12.50;99.90;;;;;;4990830;28;20415;-67
2022/05/08 05:25:08;;;;;;;14.57;9.17;;;12.60;99.90;;;;;;4991908;28;20183;-69
2022/05/08 05:27:33;;;;;;;13.70;8.83;;;12.80;99.90;;;;;;4994669;28;20287;-68
2022/05/08 05:29:59;;;;;;;15.73;8.87;;;12.70;99.90;;;;;;5002620;28;20420;-68
2022/05/08 05:32:25;;;;;;;14.80;7.47;;;12.80;99.90;;;;;;4995886;28;20200;-68
2022/05/08 05:34:51;;;;;;;13.20;7.70;;;12.90;99.90;;;;;;4992545;28;20184;-68
2022/05/08 05:37:16;;;;;;;10.70;7.27;;;12.80;99.90;;;;;;4992566;28;20802;-68
2022/05/08 05:39:42;;;;;;;15.57;7.83;;;12.90;99.90;;;;;;4993455;28;20646;-69
2022/05/08 05:42:08;;;;;;;12.70;7.37;;;12.90;99.90;;;;;;4992518;28;20180;-69
2022/05/08 05:44:34;;;;;;;15.87;7.33;;;12.90;99.90;;;;;;4991811;28;20585;-68
2022/05/08 05:49:44;;;;;;;13.77;8.20;;;12.90;99.90;;;;;;4989674;28;20924;-68
2022/05/08 05:52:09;;;;;;;15.70;7.90;;;12.90;99.90;;;;;;4991560;28;20176;-71
2022/05/08 05:54:35;;;;;;;18.40;7.20;;;12.90;99.90;;;;;;4991557;28;20180;-69
2022/05/08 05:57:02;;;;;;;8.77;6.33;;;13.00;99.90;;;;;;4991468;28;20709;-69
2022/05/08 05:59:28;;;;;;;13.63;7.07;;;13.10;99.90;;;;;;4991175;28;20919;-67
2022/05/08 06:01:53;;;;;;;15.20;6.70;;;13.10;99.90;;;;;;4991493;28;20431;-68
2022/05/08 06:04:19;;;;;;;13.37;6.87;;;13.10;99.90;;;;;;4991366;28;20180;-69
2022/05/08 06:06:44;;;;;;;11.77;6.50;;;13.00;99.90;;;;;;4989797;28;20270;-68
2022/05/08 06:09:10;;;;;;;16.80;7.37;;;13.00;99.90;;;;;;4991131;28;20176;-66
2022/05/08 06:11:35;;;;;;;11.23;7.17;;;13.10;99.90;;;;;;4991260;28;20207;-69
2022/05/08 06:14:01;;;;;;;9.70;6.10;;;13.00;99.90;;;;;;4991005;28;20546;-68
2022/05/08 06:16:26;;;;;;;17.50;7.17;;;12.90;99.90;;;;;;4991028;28;20180;-69
2022/05/08 06:18:52;;;;;;;14.07;7.43;;;13.00;99.90;;;;;;4990975;28;20560;-68
2022/05/08 06:21:17;;;;;;;11.87;7.00;;;13.10;99.90;;;;;;4990588;28;20283;-68
2022/05/08 06:23:43;;;;;;;14.10;7.17;;;13.10;99.90;;;;;;4991598;28;20567;-68
2022/05/08 06:26:08;;;;;;;14.13;7.00;;;13.10;99.90;;;;;;4990999;28;20176;-68
2022/05/08 06:28:34;;;;;;;15.00;7.00;;;13.20;99.90;;;;;;4990750;28;20212;-69
2022/05/08 06:31:00;;;;;;;16.10;7.60;;;13.30;99.90;;;;;;4990815;28;20587;-68
2022/05/08 06:33:26;;;;;;;13.47;7.80;;;13.30;99.90;;;;;;4991016;28;20176;-68
2022/05/08 06:35:52;;;;;;;10.93;7.07;;;13.40;99.90;;;;;;4990617;28;20418;-68
2022/05/08 06:38:17;;;;;;;19.17;8.93;;;13.50;99.90;;;;;;4990387;28;20514;-68
2022/05/08 06:40:44;;;;;;;10.10;6.83;;;13.50;99.90;;;;;;4989059;28;20208;-68
2022/05/08 06:43:09;;;;;;;13.73;7.90;;;13.50;99.90;;;;;;4990470;28;20255;-68
2022/05/08 06:45:35;;;;;;;14.13;8.00;;;13.50;99.90;;;;;;4990395;28;20956;-67
2022/05/08 06:48:01;;;;;;;11.77;7.67;;;13.40;99.90;;;;;;4990488;28;20295;-69
2022/05/08 06:50:29;;;;;;;16.10;7.80;;;13.40;99.90;;;;;;4990058;28;20191;-69
2022/05/08 06:52:54;;;;;;;17.60;7.93;;;13.30;99.90;;;;;;4989360;28;20262;-69
2022/05/08 06:55:20;;;;;;;15.30;7.23;;;13.40;99.90;;;;;;4990335;28;20482;-69
2022/05/08 06:57:46;;;;;;;15.70;8.37;;;13.30;99.90;;;;;;4988922;28;20713;-72
2022/05/08 07:02:56;;;;;;;16.23;6.80;;;13.30;99.90;;;;;;4990519;28;20682;-69
2022/05/08 07:05:21;;;;;;;9.73;6.50;;;13.40;99.90;;;;;;4990276;28;20407;-68
2022/05/08 07:07:47;;;;;;;18.60;7.80;;;13.50;99.90;;;;;;4989075;28;20196;-69
2022/05/08 07:10:13;;;;;;;21.63;7.40;;;13.50;99.90;;;;;;4989901;28;20188;-69
2022/05/08 07:12:38;;;;;;;11.07;7.90;;;13.50;99.90;;;;;;4988772;28;20184;-68
2022/05/08 07:15:05;;;;;;;12.77;7.43;;;13.70;99.90;;;;;;4990148;28;20172;-67
2022/05/08 07:17:30;;;;;;;14.13;7.00;;;13.70;99.90;;;;;;4990104;28;20200;-68
2022/05/08 07:19:56;;;;;;;15.17;7.00;;;13.80;99.90;;;;;;4999669;28;20977;-68
2022/05/08 07:22:25;;;;;;;15.83;8.77;;;13.90;99.90;;;;;;4989906;28;20543;-68
2022/05/08 07:24:50;;;;;;;13.57;6.97;;;14.00;99.90;;;;;;4990170;28;20547;-68
2022/05/08 07:27:16;;;;;;;12.00;6.43;;;14.00;99.90;;;;;;4995673;28;20454;-68
2022/05/08 07:29:44;;;;;;;26.07;8.23;;;14.00;99.90;;;;;;5009221;28;20183;-68
2022/05/08 07:32:10;;;;;;;15.27;6.90;;;14.10;99.90;;;;;;5009421;28;20588;-69
2022/05/08 07:37:20;;;;;;;11.70;7.47;;;13.20;99.90;;;;;;4970760;28;20434;-68
2022/05/08 07:39:46;;;;;;;14.70;7.10;;;13.00;99.90;;;;;;4970101;28;20984;-69
2022/05/08 07:42:11;;;;;;;14.83;6.60;;;12.90;99.90;;;;;;4970459;28;20181;-69
2022/05/08 07:44:37;;;;;;;14.63;7.47;;;12.90;99.90;;;;;;4970649;28;20219;-68
2022/05/08 07:47:03;;;;;;;15.60;7.07;;;13.00;99.90;;;;;;4970592;28;20197;-68
2022/05/08 07:49:28;;;;;;;13.33;6.63;;;13.20;99.90;;;;;;4970604;28;20279;-68
2022/05/08 07:51:54;;;;;;;18.87;8.30;;;13.40;99.90;;;;;;4970685;28;20490;-68
2022/05/08 07:54:20;;;;;;;14.17;7.23;;;13.50;99.90;;;;;;5008807;28;20244;-68
2022/05/08 07:56:46;;;;;;;13.57;7.23;;;13.70;99.90;;;;;;5009653;28;20216;-68
2022/05/08 07:59:11;;;;;;;14.83;6.90;;;13.70;99.90;;;;;;5009192;28;20430;-68
2022/05/08 08:01:37;;;;;;;11.30;6.60;;;13.80;99.90;;;;;;5009246;28;20459;-69
2022/05/08 08:04:04;;;;;;;14.93;7.33;;;13.80;99.90;;;;;;5009383;28;20171;-69
2022/05/08 08:06:33;;;;;;;10.43;6.40;;;13.90;99.90;;;;;;5008362;28;20648;-69
2022/05/08 08:08:59;;;;;;;15.33;7.13;;;13.80;99.90;;;;;;5012055;28;20433;-69
2022/05/08 08:11:24;;;;;;;10.27;6.20;;;13.70;99.90;;;;;;5015949;28;20793;-69
2022/05/08 08:13:51;;;;;;;10.60;5.83;;;13.50;99.90;;;;;;5021341;28;20189;-68
2022/05/08 08:16:17;;;;;;;10.80;6.00;;;13.30;99.90;;;;;;5019856;28;20163;-68
2022/05/08 08:18:44;;;;;;;16.43;6.33;;;13.20;99.90;;;;;;5016846;28;20807;-69
2022/05/08 08:21:13;;;;;;;8.80;5.17;;;13.30;99.90;;;;;;5013791;28;20489;-69
2022/05/08 08:23:40;;;;;;;10.10;5.57;;;13.50;99.90;;;;;;5015324;28;20438;-67
2022/05/08 08:26:07;;;;;;;9.83;5.20;;;13.60;99.90;;;;;;5020889;28;20417;-68
2022/05/08 08:28:32;;;;;;;14.70;5.10;;;13.60;99.90;;;;;;5005856;28;20549;-69
2022/05/08 08:30:57;;;;;;;15.17;6.60;;;13.60;99.90;;;;;;5002285;28;20424;-70
2022/05/08 08:33:23;;;;;;;13.17;5.00;;;13.60;99.90;;;;;;5002237;28;20179;-70
2022/05/08 08:35:49;;;;;;;10.63;5.07;;;13.60;99.90;;;;;;5001212;28;20552;-69
2022/05/08 08:38:14;;;;;;;9.23;5.10;;;13.70;99.90;;;;;;5002819;28;20216;-69
2022/05/08 08:40:42;;;;;;;7.57;4.40;;;13.60;99.90;;;;;;4997600;28;20223;-71
2022/05/08 08:43:11;;;;;;;6.43;4.60;;;13.70;99.90;;;;;;4995441;28;20189;-70
2022/05/08 08:48:34;;;;;;;11.93;4.60;;;14.10;99.90;;;;;;4992647;28;20435;-68
2022/05/08 08:51:01;;;;;;;11.40;5.73;;;14.10;99.90;;;;;;4992064;28;20419;-69
2022/05/08 08:53:28;;;;;;;16.20;5.97;;;14.20;99.90;;;;;;4992240;28;20794;-69
2022/05/08 08:55:56;;;;;;;10.40;4.97;;;14.10;99.90;;;;;;4990825;28;20430;-68
2022/05/08 08:58:22;;;;;;;9.20;5.37;;;14.00;99.90;;;;;;4992297;28;20438;-68
2022/05/08 09:00:49;;;;;;;8.67;5.00;;;13.90;99.90;;;;;;4993462;28;20482;-70
2022/05/08 09:03:26;;;;;;;9.47;4.70;;;13.90;99.90;;;;;;4992954;28;20176;-69
2022/05/08 09:05:59;;;;;;;14.17;5.33;;;14.20;99.90;;;;;;5008490;28;20478;-70
2022/05/08 09:08:30;;;;;;;10.03;5.60;;;14.50;99.90;;;;;;4993359;28;20465;-70
2022/05/08 09:10:58;;;;;;;11.93;5.17;;;14.60;99.90;;;;;;4994909;28;20449;-68
2022/05/08 09:13:24;;;;;;;10.33;4.77;;;14.70;99.90;;;;;;4992698;28;20415;-69
2022/05/08 09:15:59;;;;;;;10.13;4.90;;;14.80;99.90;;;;;;4991822;28;20996;-68
2022/05/08 09:18:26;;;;;;;11.93;4.93;;;14.80;99.90;;;;;;4990871;28;20471;-69
2022/05/08 09:20:55;;;;;;;11.00;4.70;;;14.70;99.90;;;;;;4990055;28;20986;-69
2022/05/08 09:23:22;;;;;;;17.10;5.83;;;14.60;99.90;;;;;;4990325;28;20435;-68
2022/05/08 09:25:51;;;;;;;12.93;4.30;;;14.80;99.90;;;;;;4991446;28;20412;-69
2022/05/08 09:28:27;;;;;;;13.50;4.90;;;14.90;99.90;;;;;;5009419;28;20482;-68
2022/05/08 09:30:56;;;;;;;8.70;4.03;;;14.90;99.90;;;;;;5011111;28;20748;-69
2022/05/08 09:33:36;;;;;;;12.20;6.13;;;15.20;99.90;;;;;;5011445;28;20403;-69
2022/05/08 09:36:04;;;;;;;11.53;4.53;;;15.40;99.90;;;;;;5011619;28;20411;-68
2022/05/08 09:38:41;;;;;;;14.57;5.40;;;15.70;99.90;;;;;;5011418;28;20477;-69
2022/05/08 09:41:07;;;;;;;10.57;4.73;;;15.70;99.10;;;;;;5011111;28;20461;-69
2022/05/08 09:43:35;;;;;;;12.17;5.00;;;15.50;99.50;;;;;;5011065;28;20453;-69
2022/05/08 09:46:02;;;;;;;9.10;4.70;;;15.60;99.60;;;;;;5010216;28;20407;-69
2022/05/08 09:48:35;;;;;;;11.80;5.20;;;15.50;99.50;;;;;;5010697;28;20973;-69
2022/05/08 09:51:06;;;;;;;7.67;5.03;;;15.60;99.80;;;;;;5000977;28;20990;-69
2022/05/08 09:53:34;;;;;;;11.33;4.40;;;16.00;99.70;;;;;;4991524;28;20446;-69
2022/05/08 09:56:02;;;;;;;10.20;4.60;;;16.30;99.00;;;;;;4974053;28;20419;-69
2022/05/08 09:58:28;;;;;;;8.43;4.37;;;16.40;98.20;;;;;;4990168;28;20436;-69
2022/05/08 10:00:54;;;;;;;12.53;4.50;;;16.10;98.10;;;;;;4990262;28;20471;-69
2022/05/08 10:03:20;;;;;;;13.73;5.00;;;15.80;98.80;;;;;;4994488;28;20465;-70
2022/05/08 10:05:47;;;;;;;9.70;5.10;;;16.00;99.30;;;;;;4991293;28;20665;-68
2022/05/08 10:08:14;;;;;;;9.90;4.90;;;16.30;98.80;;;;;;4991321;28;20431;-69
2022/05/08 10:13:55;;;;;;;8.10;4.50;;;16.40;96.90;;;;;;4991631;28;20453;-69
2022/05/08 10:16:57;;;;;;;5.90;4.47;;;16.30;97.60;;;;;;4991333;28;20991;-69
2022/05/08 10:19:26;;;;;;;9.63;4.53;;;16.10;97.40;;;;;;4990864;28;20415;-69
2022/05/08 10:21:59;;;;;;;10.77;4.40;;;16.20;97.60;;;;;;4989827;28;20840;-68
2022/05/08 10:24:48;;;;;;;7.80;4.13;;;16.30;97.30;;;;;;4991128;28;20495;-69
2022/05/08 10:27:17;;;;;;;7.53;4.07;;;16.70;97.20;;;;;;4999132;28;20442;-69
2022/05/08 10:29:49;;;;;;;11.00;4.13;;;16.80;95.10;;;;;;5009111;28;20468;-69
2022/05/08 10:32:35;;;;;;;7.90;3.57;;;16.50;95.20;;;;;;5008682;28;20407;-68
2022/05/08 10:35:12;;;;;;;8.97;5.43;;;16.30;95.70;;;;;;4999814;28;20908;-69
2022/05/08 10:37:39;;;;;;;8.70;4.60;;;16.10;95.90;;;;;;4993627;28;20466;-69
2022/05/08 10:40:25;;;;;;;6.33;3.20;;;16.30;95.70;;;;;;4993825;28;20465;-68
2022/05/08 10:43:10;;;;;;;7.13;3.83;;;16.60;94.80;;;;;;5006283;28;20431;-67
2022/05/08 10:45:40;;;;;;;6.80;3.37;;;16.60;94.70;;;;;;4991272;28;20404;-68
2022/05/08 10:48:13;;;;;;;7.20;4.10;;;16.90;93.80;;;;;;4972478;28;20485;-69
2022/05/08 10:50:47;;;;;;;7.00;3.90;;;16.90;92.80;;;;;;4987955;28;20512;-68
2022/05/08 10:53:27;;;;;;;5.97;3.90;;;16.80;93.30;;;;;;4988454;28;20519;-68
2022/05/08 10:56:05;;;;;;;5.60;3.30;;;16.90;92.30;;;;;;4978738;28;20494;-69
2022/05/08 10:58:37;;;;;;;7.27;3.73;;;16.80;91.70;;;;;;4989197;28;20478;-67
2022/05/08 11:01:05;;;;;;;11.70;4.23;;;16.60;92.60;;;;;;4988284;28;20498;-68
2022/05/08 11:03:31;;;;;;;5.60;3.87;;;16.60;92.90;;;;;;5008444;28;20863;-68
2022/05/08 11:05:58;;;;;;;6.60;3.80;;;16.70;93.40;;;;;;5008401;28;20484;-68
2022/05/08 11:08:31;;;;;;;6.37;3.20;;;16.90;93.50;;;;;;5008321;28;20458;-69
2022/05/08 11:11:02;;;;;;;5.30;2.93;;;16.90;93.10;;;;;;5024573;23;20454;-73
2022/05/08 11:14:03;;;;;;;7.33;2.70;;;16.80;90.10;;;;;;5065129;28;20474;-72
2022/05/08 11:16:34;;;;;;;9.27;3.27;;;16.60;90.30;;;;;;4983958;28;20928;-73
2022/05/08 11:19:00;;;;;;;5.07;3.00;;;16.50;90.90;;;;;;4981752;28;20423;-73
2022/05/08 11:21:26;;;;;;;5.43;2.50;;;16.40;88.00;;;;;;4985783;28;20469;-73
2022/05/08 11:23:53;;;;;;;4.80;2.70;;;16.40;87.80;;;;;;4989158;28;21022;-73
2022/05/08 11:26:26;;;;;;;4.37;3.00;;;16.50;87.80;;;;;;4996690;28;20179;-73
2022/05/08 11:28:55;;;;;;;3.07;2.60;;;16.60;87.70;;;;;;4991851;28;20431;-73
2022/05/08 11:31:23;;;;;;;3.50;2.67;;;16.60;86.50;;;;;;4998128;28;20435;-73
2022/05/08 11:36:35;;;;;;;4.23;2.60;;;16.50;88.40;;;;;;4997759;28;20472;-72
2022/05/08 11:39:03;;;;;;;5.70;2.87;;;16.70;89.40;;;;;;4993496;28;20427;-72
2022/05/08 11:41:38;;;;;;;4.23;2.33;;;16.80;88.40;;;;;;5003680;28;20466;-72
2022/05/08 11:44:13;;;;;;;2.10;1.90;;;16.80;85.60;;;;;;4993261;28;20868;-72
2022/05/08 11:46:46;;;;;;;2.87;2.27;;;16.80;86.00;;;;;;4996511;28;20430;-72
2022/05/08 11:49:23;;;;;;;4.03;2.47;;;16.90;86.20;;;;;;5007101;28;20418;-71
2022/05/08 11:51:54;;;;;;;5.20;2.67;;;17.00;86.80;;;;;;5081819;28;20475;-71
2022/05/08 11:54:22;;;;;;;5.53;2.70;;;17.10;85.70;;;;;;5105715;28;20514;-71
2022/05/08 11:56:51;;;;;;;3.90;2.93;;;17.20;84.80;;;;;;5088272;28;20494;-71
2022/05/08 11:59:22;;;;;;;4.73;3.23;;;17.20;86.00;;;;;;5097255;28;20414;-70
2022/05/08 12:01:52;;;;;;;3.20;2.88;;;17.20;87.10;;;;;;5081036;28;20426;-71
2022/05/08 12:04:30;;;;;;;2.80;2.10;;;17.30;87.30;;;;;;5105297;28;20180;-72
2022/05/08 12:07:06;;;;;;;2.40;1.97;;;17.40;85.80;;;;;;5108110;28;20413;-72
2022/05/08 12:09:41;;;;;;;4.40;2.27;;;17.50;83.40;;;;;;5111506;28;21014;-72
2022/05/08 12:12:20;;;;;;;3.10;2.30;;;17.50;81.40;;;;;;5100211;28;20540;-72
2022/05/08 12:14:45;;;;;;;4.73;2.17;;;17.50;81.80;;;;;;5101876;28;20454;-72
2022/05/08 12:17:10;;;;;;;2.80;2.10;;;17.50;82.60;;;;;;5109772;28;20875;-72
2022/05/08 12:19:36;;;;;;;3.37;2.53;;;17.60;83.00;;;;;;5095875;28;20264;-72
2022/05/08 12:22:26;;;;;;;3.87;2.37;;;17.50;83.20;;;;;;5108074;28;20250;-73
2022/05/08 12:24:53;;;;;;;4.60;2.70;;;17.50;84.90;;;;;;5087878;28;20179;-72
2022/05/08 12:27:19;;;;;;;4.73;3.03;;;17.50;86.00;;;;;;5097247;28;20429;-73
2022/05/08 12:29:46;;;;;;;2.87;2.60;;;17.50;86.10;;;;;;5110207;28;20891;-72
2022/05/08 12:32:15;;;;;;;2.87;2.47;;;17.40;86.50;;;;;;5099910;28;20441;-73
2022/05/08 12:34:41;;;;;;;7.30;3.00;;;17.50;86.20;;;;;;5102719;28;20421;-73
2022/05/08 12:37:09;;;;;;;5.83;3.40;;;17.50;87.10;;;;;;5109255;28;20509;-73
2022/05/08 12:39:34;;;;;;;4.60;3.13;;;17.50;87.60;;;;;;5097294;28;20489;-73
2022/05/08 12:42:00;;;;;;;5.00;3.53;;;17.60;89.00;;;;;;5107862;28;20545;-73
2022/05/08 12:44:25;;;;;;;8.37;4.33;;;17.60;89.30;;;;;;5103464;28;20194;-73
2022/05/08 12:46:51;;;;;;;4.50;3.07;;;17.60;89.80;;;;;;5100723;28;20851;-73
2022/05/08 12:49:17;;;;;;;4.63;3.30;;;17.70;89.90;;;;;;5091130;28;20424;-73
2022/05/08 12:51:45;;;;;;;4.17;3.20;;;17.60;89.60;;;;;;5080479;28;20441;-74
2022/05/08 12:54:11;;;;;;;7.07;3.67;;;17.60;90.30;;;;;;5106649;28;20239;-73
2022/05/08 12:56:37;;;;;;;6.37;3.40;;;17.70;89.70;;;;;;5085843;28;20540;-72
2022/05/08 13:01:49;;;;;;;5.37;3.47;;;17.60;88.40;;;;;;5104929;28;20479;-73
2022/05/08 13:04:14;;;;;;;6.77;3.20;;;17.60;88.70;;;;;;5088227;28;20410;-73
2022/05/08 13:06:41;;;;;;;6.60;3.10;;;17.80;89.50;;;;;;5100156;28;20414;-73